sensor_id;sensor_type;location;lat;lon;timestamp;P1;durP1;ratioP1;P2;durP2;ratioP2
842;SDS011;407;48.884;9.126;2023-03-14T00:00:34;4.10;;;0.50;;
842;SDS011;407;48.884;9.126;2023-03-14T00:02:59;4.00;;;0.40;;
842;SDS011;407;48.884;9.126;2023-03-14T00:05:25;5.10;;;0.50;;
842;SDS011;407;48.884;9.126;2023-03-14T00:07:51;3.83;;;0.50;;
842;SDS011;407;48.884;9.126;2023-03-14T00:10:16;4.03;;;0.40;;
842;SDS011;407;48.884;9.126;2023-03-14T00:12:43;3.70;;;0.50;;
842;SDS011;407;48.884;9.126;2023-03-14T00:15:09;3.80;;;0.30;;
842;SDS011;407;48.884;9.126;2023-03-14T00:17:36;3.60;;;0.40;;
842;SDS011;407;48.884;9.126;2023-03-14T00:20:03;4.60;;;0.50;;
842;SDS011;407;48.884;9.126;2023-03-14T00:22:36;3.72;;;0.50;;
842;SDS011;407;48.884;9.126;2023-03-14T00:25:03;3.60;;;0.40;;
842;SDS011;407;48.884;9.126;2023-03-14T00:27:31;3.50;;;0.30;;
842;SDS011;407;48.884;9.126;2023-03-14T00:29:57;4.40;;;0.40;;
842;SDS011;407;48.884;9.126;2023-03-14T00:32:23;4.10;;;0.40;;
842;SDS011;407;48.884;9.126;2023-03-14T00:34:49;4.03;;;0.60;;
842;SDS011;407;48.884;9.126;2023-03-14T00:37:14;3.95;;;0.50;;
842;SDS011;407;48.884;9.126;2023-03-14T00:39:42;3.70;;;0.50;;
842;SDS011;407;48.884;9.126;2023-03-14T00:42:07;4.70;;;0.50;;
842;SDS011;407;48.884;9.126;2023-03-14T00:44:33;4.20;;;0.70;;
842;SDS011;407;48.884;9.126;2023-03-14T00:46:58;3.90;;;0.30;;
842;SDS011;407;48.884;9.126;2023-03-14T00:49:24;3.65;;;0.45;;
842;SDS011;407;48.884;9.126;2023-03-14T00:51:50;5.30;;;0.50;;
842;SDS011;407;48.884;9.126;2023-03-14T00:54:16;3.70;;;0.50;;
842;SDS011;407;48.884;9.126;2023-03-14T00:56:43;4.40;;;0.50;;
842;SDS011;407;48.884;9.126;2023-03-14T00:59:09;3.70;;;0.60;;
842;SDS011;407;48.884;9.126;2023-03-14T01:01:34;3.73;;;0.50;;
842;SDS011;407;48.884;9.126;2023-03-14T01:04:00;3.70;;;0.50;;
842;SDS011;407;48.884;9.126;2023-03-14T01:06:27;5.10;;;0.50;;
842;SDS011;407;48.884;9.126;2023-03-14T01:08:55;3.80;;;0.52;;
842;SDS011;407;48.884;9.126;2023-03-14T01:11:22;3.60;;;0.38;;
842;SDS011;407;48.884;9.126;2023-03-14T01:13:51;3.70;;;0.47;;
842;SDS011;407;48.884;9.126;2023-03-14T01:16:18;4.15;;;0.60;;
842;SDS011;407;48.884;9.126;2023-03-14T01:18:45;4.30;;;0.50;;
842;SDS011;407;48.884;9.126;2023-03-14T01:21:13;4.78;;;0.50;;
842;SDS011;407;48.884;9.126;2023-03-14T01:23:47;3.70;;;0.50;;
842;SDS011;407;48.884;9.126;2023-03-14T01:26:14;4.00;;;0.40;;
842;SDS011;407;48.884;9.126;2023-03-14T01:28:44;3.78;;;0.55;;
842;SDS011;407;48.884;9.126;2023-03-14T01:31:10;3.90;;;0.40;;
842;SDS011;407;48.884;9.126;2023-03-14T01:33:37;3.90;;;0.40;;
842;SDS011;407;48.884;9.126;2023-03-14T01:36:04;3.90;;;0.50;;
842;SDS011;407;48.884;9.126;2023-03-14T01:38:30;3.92;;;0.52;;
842;SDS011;407;48.884;9.126;2023-03-14T01:40:57;3.60;;;0.40;;
842;SDS011;407;48.884;9.126;2023-03-14T01:43:24;3.60;;;0.40;;
842;SDS011;407;48.884;9.126;2023-03-14T01:49:13;3.60;;;0.40;;
842;SDS011;407;48.884;9.126;2023-03-14T01:51:44;4.03;;;0.50;;
842;SDS011;407;48.884;9.126;2023-03-14T01:56:42;3.70;;;0.40;;
842;SDS011;407;48.884;9.126;2023-03-14T01:59:11;4.47;;;0.47;;
842;SDS011;407;48.884;9.126;2023-03-14T02:01:37;3.50;;;0.30;;
842;SDS011;407;48.884;9.126;2023-03-14T02:04:06;4.20;;;0.40;;
842;SDS011;407;48.884;9.126;2023-03-14T02:06:35;4.10;;;0.50;;
842;SDS011;407;48.884;9.126;2023-03-14T02:09:07;4.10;;;0.40;;
842;SDS011;407;48.884;9.126;2023-03-14T02:11:33;4.60;;;0.30;;
842;SDS011;407;48.884;9.126;2023-03-14T02:13:59;3.70;;;0.40;;
842;SDS011;407;48.884;9.126;2023-03-14T02:16:26;3.72;;;0.43;;
842;SDS011;407;48.884;9.126;2023-03-14T02:18:52;3.50;;;0.30;;
842;SDS011;407;48.884;9.126;2023-03-14T02:21:23;4.70;;;0.40;;
842;SDS011;407;48.884;9.126;2023-03-14T02:26:43;3.70;;;0.47;;
842;SDS011;407;48.884;9.126;2023-03-14T02:29:29;3.80;;;0.40;;
842;SDS011;407;48.884;9.126;2023-03-14T02:31:57;3.60;;;0.40;;
842;SDS011;407;48.884;9.126;2023-03-14T02:34:23;4.00;;;0.40;;
842;SDS011;407;48.884;9.126;2023-03-14T02:36:49;4.80;;;0.50;;
842;SDS011;407;48.884;9.126;2023-03-14T02:39:16;4.00;;;0.50;;
842;SDS011;407;48.884;9.126;2023-03-14T02:41:57;3.80;;;0.40;;
842;SDS011;407;48.884;9.126;2023-03-14T02:44:23;6.43;;;0.40;;
842;SDS011;407;48.884;9.126;2023-03-14T02:46:48;3.77;;;0.30;;
842;SDS011;407;48.884;9.126;2023-03-14T02:49:14;4.10;;;0.47;;
842;SDS011;407;48.884;9.126;2023-03-14T02:51:41;4.50;;;0.40;;
842;SDS011;407;48.884;9.126;2023-03-14T02:54:10;4.10;;;0.40;;
842;SDS011;407;48.884;9.126;2023-03-14T02:56:35;4.10;;;0.40;;
842;SDS011;407;48.884;9.126;2023-03-14T02:59:02;3.70;;;0.40;;
842;SDS011;407;48.884;9.126;2023-03-14T03:01:29;4.10;;;0.40;;
842;SDS011;407;48.884;9.126;2023-03-14T03:03:54;3.90;;;0.67;;
842;SDS011;407;48.884;9.126;2023-03-14T03:06:21;3.60;;;0.30;;
842;SDS011;407;48.884;9.126;2023-03-14T03:08:47;5.00;;;0.40;;
842;SDS011;407;48.884;9.126;2023-03-14T03:11:12;3.90;;;0.50;;
842;SDS011;407;48.884;9.126;2023-03-14T03:13:38;3.90;;;0.40;;
842;SDS011;407;48.884;9.126;2023-03-14T03:16:04;4.70;;;0.70;;
842;SDS011;407;48.884;9.126;2023-03-14T03:18:30;5.50;;;0.70;;
842;SDS011;407;48.884;9.126;2023-03-14T03:20:59;4.00;;;0.40;;
842;SDS011;407;48.884;9.126;2023-03-14T03:23:27;4.40;;;0.70;;
842;SDS011;407;48.884;9.126;2023-03-14T03:25:52;4.82;;;0.60;;
842;SDS011;407;48.884;9.126;2023-03-14T03:28:18;4.30;;;0.50;;
842;SDS011;407;48.884;9.126;2023-03-14T03:30:44;4.70;;;0.40;;
842;SDS011;407;48.884;9.126;2023-03-14T03:33:10;4.30;;;0.50;;
842;SDS011;407;48.884;9.126;2023-03-14T03:35:47;4.93;;;0.63;;
842;SDS011;407;48.884;9.126;2023-03-14T03:38:14;3.97;;;0.40;;
842;SDS011;407;48.884;9.126;2023-03-14T03:40:41;4.68;;;0.77;;
842;SDS011;407;48.884;9.126;2023-03-14T03:43:06;4.93;;;0.50;;
842;SDS011;407;48.884;9.126;2023-03-14T03:45:32;4.80;;;0.50;;
842;SDS011;407;48.884;9.126;2023-03-14T03:47:57;3.90;;;0.50;;
842;SDS011;407;48.884;9.126;2023-03-14T03:50:23;5.00;;;0.40;;
842;SDS011;407;48.884;9.126;2023-03-14T03:52:49;6.30;;;0.50;;
842;SDS011;407;48.884;9.126;2023-03-14T03:55:14;3.80;;;0.40;;
842;SDS011;407;48.884;9.126;2023-03-14T03:57:40;3.80;;;0.40;;
842;SDS011;407;48.884;9.126;2023-03-14T04:00:06;4.07;;;0.53;;
842;SDS011;407;48.884;9.126;2023-03-14T04:02:34;4.93;;;0.70;;
842;SDS011;407;48.884;9.126;2023-03-14T04:04:59;5.80;;;0.50;;
842;SDS011;407;48.884;9.126;2023-03-14T04:07:25;4.40;;;0.60;;
842;SDS011;407;48.884;9.126;2023-03-14T04:09:50;4.55;;;0.60;;
842;SDS011;407;48.884;9.126;2023-03-14T04:12:16;4.30;;;0.40;;
842;SDS011;407;48.884;9.126;2023-03-14T04:14:42;5.80;;;0.40;;
842;SDS011;407;48.884;9.126;2023-03-14T04:17:07;4.10;;;0.60;;
842;SDS011;407;48.884;9.126;2023-03-14T04:19:33;4.40;;;0.52;;
842;SDS011;407;48.884;9.126;2023-03-14T04:21:58;6.97;;;0.70;;
842;SDS011;407;48.884;9.126;2023-03-14T04:24:25;4.32;;;0.60;;
842;SDS011;407;48.884;9.126;2023-03-14T04:26:51;4.90;;;0.60;;
842;SDS011;407;48.884;9.126;2023-03-14T04:29:17;4.90;;;0.70;;
842;SDS011;407;48.884;9.126;2023-03-14T04:31:43;7.00;;;0.80;;
842;SDS011;407;48.884;9.126;2023-03-14T04:34:08;5.13;;;0.50;;
842;SDS011;407;48.884;9.126;2023-03-14T04:36:34;7.32;;;0.50;;
842;SDS011;407;48.884;9.126;2023-03-14T04:38:59;4.70;;;0.50;;
842;SDS011;407;48.884;9.126;2023-03-14T04:41:26;4.47;;;0.70;;
842;SDS011;407;48.884;9.126;2023-03-14T04:43:52;4.40;;;0.70;;
842;SDS011;407;48.884;9.126;2023-03-14T04:46:17;4.60;;;0.50;;
842;SDS011;407;48.884;9.126;2023-03-14T04:48:43;3.90;;;0.30;;
842;SDS011;407;48.884;9.126;2023-03-14T04:51:09;4.13;;;0.60;;
842;SDS011;407;48.884;9.126;2023-03-14T04:53:34;5.00;;;0.73;;
842;SDS011;407;48.884;9.126;2023-03-14T04:56:01;5.30;;;0.70;;
842;SDS011;407;48.884;9.126;2023-03-14T04:58:28;5.43;;;0.50;;
842;SDS011;407;48.884;9.126;2023-03-14T05:00:53;6.40;;;0.80;;
842;SDS011;407;48.884;9.126;2023-03-14T05:03:19;7.30;;;0.80;;
842;SDS011;407;48.884;9.126;2023-03-14T05:05:44;7.40;;;0.90;;
842;SDS011;407;48.884;9.126;2023-03-14T05:08:10;6.00;;;0.60;;
842;SDS011;407;48.884;9.126;2023-03-14T05:10:36;4.50;;;0.65;;
842;SDS011;407;48.884;9.126;2023-03-14T05:13:03;5.40;;;0.65;;
842;SDS011;407;48.884;9.126;2023-03-14T05:15:28;5.47;;;0.70;;
842;SDS011;407;48.884;9.126;2023-03-14T05:17:54;5.00;;;0.83;;
842;SDS011;407;48.884;9.126;2023-03-14T05:20:20;4.93;;;0.80;;
842;SDS011;407;48.884;9.126;2023-03-14T05:22:46;5.13;;;0.82;;
842;SDS011;407;48.884;9.126;2023-03-14T05:25:12;5.35;;;0.60;;
842;SDS011;407;48.884;9.126;2023-03-14T05:27:37;4.57;;;0.60;;
842;SDS011;407;48.884;9.126;2023-03-14T05:30:04;6.90;;;0.70;;
842;SDS011;407;48.884;9.126;2023-03-14T05:32:32;7.38;;;0.77;;
842;SDS011;407;48.884;9.126;2023-03-14T05:34:58;4.80;;;0.50;;
842;SDS011;407;48.884;9.126;2023-03-14T05:37:25;4.70;;;0.85;;
842;SDS011;407;48.884;9.126;2023-03-14T05:39:51;4.63;;;0.40;;
842;SDS011;407;48.884;9.126;2023-03-14T05:42:17;6.30;;;0.50;;
842;SDS011;407;48.884;9.126;2023-03-14T05:44:43;6.20;;;0.60;;
842;SDS011;407;48.884;9.126;2023-03-14T05:47:09;4.90;;;0.70;;
842;SDS011;407;48.884;9.126;2023-03-14T05:49:34;7.43;;;0.53;;
842;SDS011;407;48.884;9.126;2023-03-14T05:52:00;8.18;;;0.90;;
842;SDS011;407;48.884;9.126;2023-03-14T05:54:26;4.50;;;0.60;;
842;SDS011;407;48.884;9.126;2023-03-14T05:56:51;4.97;;;0.60;;
842;SDS011;407;48.884;9.126;2023-03-14T05:59:17;5.40;;;0.40;;
842;SDS011;407;48.884;9.126;2023-03-14T06:01:43;4.80;;;0.60;;
842;SDS011;407;48.884;9.126;2023-03-14T06:04:08;4.30;;;0.50;;
842;SDS011;407;48.884;9.126;2023-03-14T06:06:34;5.03;;;0.60;;
842;SDS011;407;48.884;9.126;2023-03-14T06:08:59;4.80;;;0.60;;
842;SDS011;407;48.884;9.126;2023-03-14T06:11:25;5.07;;;0.70;;
842;SDS011;407;48.884;9.126;2023-03-14T06:13:51;6.30;;;0.60;;
842;SDS011;407;48.884;9.126;2023-03-14T06:16:16;4.00;;;0.60;;
842;SDS011;407;48.884;9.126;2023-03-14T06:18:42;6.70;;;0.85;;
842;SDS011;407;48.884;9.126;2023-03-14T06:21:07;5.50;;;0.70;;
842;SDS011;407;48.884;9.126;2023-03-14T06:23:33;3.90;;;0.38;;
842;SDS011;407;48.884;9.126;2023-03-14T06:25:59;4.55;;;0.65;;
842;SDS011;407;48.884;9.126;2023-03-14T06:28:25;3.97;;;0.40;;
842;SDS011;407;48.884;9.126;2023-03-14T06:30:51;4.40;;;0.40;;
842;SDS011;407;48.884;9.126;2023-03-14T06:33:17;4.10;;;0.40;;
842;SDS011;407;48.884;9.126;2023-03-14T06:35:42;5.40;;;0.60;;
842;SDS011;407;48.884;9.126;2023-03-14T06:38:08;5.30;;;0.50;;
842;SDS011;407;48.884;9.126;2023-03-14T06:40:33;5.17;;;0.47;;
842;SDS011;407;48.884;9.126;2023-03-14T06:42:59;4.50;;;0.70;;
842;SDS011;407;48.884;9.126;2023-03-14T06:45:25;5.60;;;0.80;;
842;SDS011;407;48.884;9.126;2023-03-14T06:47:51;6.35;;;0.68;;
842;SDS011;407;48.884;9.126;2023-03-14T06:50:17;5.33;;;0.60;;
842;SDS011;407;48.884;9.126;2023-03-14T06:52:42;5.30;;;0.50;;
842;SDS011;407;48.884;9.126;2023-03-14T06:55:12;4.80;;;0.57;;
842;SDS011;407;48.884;9.126;2023-03-14T06:57:38;4.70;;;0.50;;
842;SDS011;407;48.884;9.126;2023-03-14T07:00:04;4.85;;;0.60;;
842;SDS011;407;48.884;9.126;2023-03-14T07:02:30;5.80;;;0.65;;
842;SDS011;407;48.884;9.126;2023-03-14T07:04:56;5.27;;;0.60;;
842;SDS011;407;48.884;9.126;2023-03-14T07:07:22;5.60;;;0.57;;
842;SDS011;407;48.884;9.126;2023-03-14T07:09:48;4.57;;;0.40;;
842;SDS011;407;48.884;9.126;2023-03-14T07:12:14;4.90;;;0.47;;
842;SDS011;407;48.884;9.126;2023-03-14T07:14:39;4.97;;;0.60;;
842;SDS011;407;48.884;9.126;2023-03-14T07:17:05;5.70;;;0.60;;
842;SDS011;407;48.884;9.126;2023-03-14T07:19:30;6.80;;;0.60;;
842;SDS011;407;48.884;9.126;2023-03-14T07:21:56;7.30;;;0.90;;
842;SDS011;407;48.884;9.126;2023-03-14T07:24:22;5.30;;;0.60;;
842;SDS011;407;48.884;9.126;2023-03-14T07:26:47;6.38;;;0.80;;
842;SDS011;407;48.884;9.126;2023-03-14T07:29:13;6.32;;;1.00;;
842;SDS011;407;48.884;9.126;2023-03-14T07:31:39;5.47;;;0.90;;
842;SDS011;407;48.884;9.126;2023-03-14T07:34:04;4.50;;;0.70;;
842;SDS011;407;48.884;9.126;2023-03-14T07:36:31;5.10;;;1.00;;
842;SDS011;407;48.884;9.126;2023-03-14T07:38:57;5.50;;;1.10;;
842;SDS011;407;48.884;9.126;2023-03-14T07:41:22;6.30;;;1.20;;
842;SDS011;407;48.884;9.126;2023-03-14T07:43:49;6.10;;;1.10;;
842;SDS011;407;48.884;9.126;2023-03-14T07:46:14;5.00;;;1.00;;
842;SDS011;407;48.884;9.126;2023-03-14T07:48:40;5.20;;;1.30;;
842;SDS011;407;48.884;9.126;2023-03-14T07:51:06;5.40;;;0.80;;
842;SDS011;407;48.884;9.126;2023-03-14T07:53:32;4.55;;;0.80;;
842;SDS011;407;48.884;9.126;2023-03-14T07:55:57;5.80;;;1.10;;
842;SDS011;407;48.884;9.126;2023-03-14T07:58:23;4.60;;;1.20;;
842;SDS011;407;48.884;9.126;2023-03-14T08:00:49;4.65;;;1.30;;
842;SDS011;407;48.884;9.126;2023-03-14T08:03:15;5.05;;;1.75;;
842;SDS011;407;48.884;9.126;2023-03-14T08:05:41;6.10;;;2.95;;
842;SDS011;407;48.884;9.126;2023-03-14T08:08:07;6.70;;;5.40;;
842;SDS011;407;48.884;9.126;2023-03-14T08:10:33;5.90;;;5.30;;
842;SDS011;407;48.884;9.126;2023-03-14T08:12:59;5.90;;;4.20;;
842;SDS011;407;48.884;9.126;2023-03-14T08:15:26;5.30;;;3.53;;
842;SDS011;407;48.884;9.126;2023-03-14T08:17:54;5.20;;;3.40;;
842;SDS011;407;48.884;9.126;2023-03-14T08:20:20;5.40;;;3.30;;
842;SDS011;407;48.884;9.126;2023-03-14T08:22:49;5.10;;;2.80;;
842;SDS011;407;48.884;9.126;2023-03-14T08:25:14;4.70;;;1.70;;
842;SDS011;407;48.884;9.126;2023-03-14T08:27:40;4.40;;;1.00;;
842;SDS011;407;48.884;9.126;2023-03-14T08:30:07;4.38;;;0.70;;
842;SDS011;407;48.884;9.126;2023-03-14T08:32:34;4.30;;;0.50;;
842;SDS011;407;48.884;9.126;2023-03-14T08:35:00;4.20;;;0.60;;
842;SDS011;407;48.884;9.126;2023-03-14T08:37:26;4.50;;;0.60;;
842;SDS011;407;48.884;9.126;2023-03-14T08:39:53;4.30;;;0.60;;
842;SDS011;407;48.884;9.126;2023-03-14T08:42:19;4.80;;;0.80;;
842;SDS011;407;48.884;9.126;2023-03-14T08:44:45;4.97;;;0.70;;
842;SDS011;407;48.884;9.126;2023-03-14T08:47:10;4.20;;;0.50;;
842;SDS011;407;48.884;9.126;2023-03-14T08:49:36;5.43;;;0.60;;
842;SDS011;407;48.884;9.126;2023-03-14T08:52:02;5.70;;;0.70;;
842;SDS011;407;48.884;9.126;2023-03-14T08:54:29;4.40;;;0.60;;
842;SDS011;407;48.884;9.126;2023-03-14T08:56:55;4.60;;;0.52;;
842;SDS011;407;48.884;9.126;2023-03-14T08:59:20;4.70;;;0.57;;
842;SDS011;407;48.884;9.126;2023-03-14T09:01:46;4.47;;;0.40;;
842;SDS011;407;48.884;9.126;2023-03-14T09:04:12;5.30;;;0.90;;
842;SDS011;407;48.884;9.126;2023-03-14T09:06:38;4.20;;;0.30;;
842;SDS011;407;48.884;9.126;2023-03-14T09:09:04;4.10;;;0.30;;
842;SDS011;407;48.884;9.126;2023-03-14T09:11:31;4.50;;;0.40;;
842;SDS011;407;48.884;9.126;2023-03-14T09:13:56;5.30;;;0.40;;
842;SDS011;407;48.884;9.126;2023-03-14T09:16:22;4.70;;;0.60;;
842;SDS011;407;48.884;9.126;2023-03-14T09:18:48;4.20;;;0.40;;
842;SDS011;407;48.884;9.126;2023-03-14T09:21:13;4.10;;;0.33;;
842;SDS011;407;48.884;9.126;2023-03-14T09:23:40;4.68;;;0.52;;
842;SDS011;407;48.884;9.126;2023-03-14T09:26:06;4.10;;;0.30;;
842;SDS011;407;48.884;9.126;2023-03-14T09:28:32;4.40;;;0.30;;
842;SDS011;407;48.884;9.126;2023-03-14T09:30:58;4.30;;;0.35;;
842;SDS011;407;48.884;9.126;2023-03-14T09:33:30;4.22;;;0.40;;
842;SDS011;407;48.884;9.126;2023-03-14T09:35:57;4.20;;;0.40;;
842;SDS011;407;48.884;9.126;2023-03-14T09:38:24;4.20;;;0.40;;
842;SDS011;407;48.884;9.126;2023-03-14T09:40:51;4.00;;;0.30;;
842;SDS011;407;48.884;9.126;2023-03-14T09:43:18;6.30;;;0.50;;
842;SDS011;407;48.884;9.126;2023-03-14T09:45:46;4.90;;;0.30;;
842;SDS011;407;48.884;9.126;2023-03-14T09:48:19;5.50;;;0.70;;
842;SDS011;407;48.884;9.126;2023-03-14T09:50:51;4.10;;;0.40;;
842;SDS011;407;48.884;9.126;2023-03-14T09:53:26;4.00;;;0.30;;
842;SDS011;407;48.884;9.126;2023-03-14T09:55:57;4.00;;;0.22;;
842;SDS011;407;48.884;9.126;2023-03-14T09:58:24;4.43;;;0.30;;
842;SDS011;407;48.884;9.126;2023-03-14T10:00:51;4.17;;;0.20;;
842;SDS011;407;48.884;9.126;2023-03-14T10:03:31;4.00;;;0.30;;
842;SDS011;407;48.884;9.126;2023-03-14T10:05:58;4.50;;;0.30;;
842;SDS011;407;48.884;9.126;2023-03-14T10:08:24;4.10;;;0.30;;
842;SDS011;407;48.884;9.126;2023-03-14T10:10:50;4.10;;;0.25;;
842;SDS011;407;48.884;9.126;2023-03-14T10:13:20;4.30;;;0.30;;
842;SDS011;407;48.884;9.126;2023-03-14T10:15:55;4.10;;;0.30;;
842;SDS011;407;48.884;9.126;2023-03-14T10:18:30;4.20;;;0.30;;
842;SDS011;407;48.884;9.126;2023-03-14T10:21:04;4.30;;;0.30;;
842;SDS011;407;48.884;9.126;2023-03-14T10:23:33;4.40;;;0.40;;
842;SDS011;407;48.884;9.126;2023-03-14T10:26:07;4.20;;;0.30;;
842;SDS011;407;48.884;9.126;2023-03-14T10:28:44;4.40;;;0.40;;
842;SDS011;407;48.884;9.126;2023-03-14T10:31:11;4.20;;;0.38;;
842;SDS011;407;48.884;9.126;2023-03-14T10:33:37;4.10;;;0.30;;
842;SDS011;407;48.884;9.126;2023-03-14T10:36:19;7.18;;;1.63;;
842;SDS011;407;48.884;9.126;2023-03-14T10:38:48;4.43;;;0.40;;
842;SDS011;407;48.884;9.126;2023-03-14T10:41:23;4.32;;;0.60;;
842;SDS011;407;48.884;9.126;2023-03-14T10:43:51;4.30;;;0.30;;
842;SDS011;407;48.884;9.126;2023-03-14T10:46:20;4.10;;;0.30;;
842;SDS011;407;48.884;9.126;2023-03-14T10:48:48;4.30;;;0.60;;
842;SDS011;407;48.884;9.126;2023-03-14T10:51:18;4.30;;;0.40;;
842;SDS011;407;48.884;9.126;2023-03-14T10:54:13;4.50;;;0.43;;
842;SDS011;407;48.884;9.126;2023-03-14T10:56:44;4.50;;;0.40;;
842;SDS011;407;48.884;9.126;2023-03-14T10:59:13;5.07;;;0.90;;
842;SDS011;407;48.884;9.126;2023-03-14T11:01:41;5.40;;;0.60;;
842;SDS011;407;48.884;9.126;2023-03-14T11:15:13;4.00;;;0.20;;
842;SDS011;407;48.884;9.126;2023-03-14T11:17:48;4.10;;;0.30;;
842;SDS011;407;48.884;9.126;2023-03-14T11:23:05;3.90;;;0.30;;
842;SDS011;407;48.884;9.126;2023-03-14T11:36:31;6.00;;;0.50;;
842;SDS011;407;48.884;9.126;2023-03-14T11:39:02;3.80;;;0.30;;
842;SDS011;407;48.884;9.126;2023-03-14T11:41:40;3.83;;;0.30;;
842;SDS011;407;48.884;9.126;2023-03-14T11:44:30;3.90;;;0.30;;
842;SDS011;407;48.884;9.126;2023-03-14T11:47:02;4.10;;;0.40;;
842;SDS011;407;48.884;9.126;2023-03-14T11:49:43;3.80;;;0.20;;
842;SDS011;407;48.884;9.126;2023-03-14T11:52:17;4.18;;;0.40;;
842;SDS011;407;48.884;9.126;2023-03-14T11:54:50;3.90;;;0.30;;
842;SDS011;407;48.884;9.126;2023-03-14T11:57:37;3.80;;;0.20;;
842;SDS011;407;48.884;9.126;2023-03-14T12:00:21;3.70;;;0.20;;
842;SDS011;407;48.884;9.126;2023-03-14T12:05:54;3.90;;;0.30;;
842;SDS011;407;48.884;9.126;2023-03-14T12:08:39;3.80;;;0.30;;
842;SDS011;407;48.884;9.126;2023-03-14T12:11:14;4.30;;;0.30;;
842;SDS011;407;48.884;9.126;2023-03-14T12:13:45;3.70;;;0.20;;
842;SDS011;407;48.884;9.126;2023-03-14T12:18:48;3.80;;;0.20;;
842;SDS011;407;48.884;9.126;2023-03-14T12:21:16;3.60;;;0.20;;
842;SDS011;407;48.884;9.126;2023-03-14T12:23:44;3.70;;;0.20;;
842;SDS011;407;48.884;9.126;2023-03-14T12:26:25;3.70;;;0.20;;
842;SDS011;407;48.884;9.126;2023-03-14T12:32:20;4.07;;;0.30;;
842;SDS011;407;48.884;9.126;2023-03-14T12:34:26;4.28;;;0.60;;
842;SDS011;407;48.884;9.126;2023-03-14T12:36:59;3.80;;;0.22;;
842;SDS011;407;48.884;9.126;2023-03-14T12:40:03;4.00;;;0.40;;
842;SDS011;407;48.884;9.126;2023-03-14T12:48:11;4.30;;;0.63;;
842;SDS011;407;48.884;9.126;2023-03-14T12:50:56;5.20;;;0.50;;
842;SDS011;407;48.884;9.126;2023-03-14T12:56:50;4.40;;;0.43;;
842;SDS011;407;48.884;9.126;2023-03-14T12:59:45;4.45;;;0.38;;
842;SDS011;407;48.884;9.126;2023-03-14T13:04:53;4.50;;;0.50;;
842;SDS011;407;48.884;9.126;2023-03-14T13:12:51;4.20;;;0.40;;
842;SDS011;407;48.884;9.126;2023-03-14T13:18:09;4.30;;;0.40;;
842;SDS011;407;48.884;9.126;2023-03-14T13:20:45;6.00;;;0.40;;
842;SDS011;407;48.884;9.126;2023-03-14T13:23:20;4.60;;;0.40;;
842;SDS011;407;48.884;9.126;2023-03-14T13:25:50;4.40;;;0.50;;
842;SDS011;407;48.884;9.126;2023-03-14T13:28:16;4.80;;;0.60;;
842;SDS011;407;48.884;9.126;2023-03-14T13:30:43;4.40;;;0.40;;
842;SDS011;407;48.884;9.126;2023-03-14T13:33:15;4.10;;;0.40;;
842;SDS011;407;48.884;9.126;2023-03-14T13:35:47;5.00;;;0.60;;
842;SDS011;407;48.884;9.126;2023-03-14T13:38:20;5.40;;;0.50;;
842;SDS011;407;48.884;9.126;2023-03-14T13:40:54;4.50;;;0.75;;
842;SDS011;407;48.884;9.126;2023-03-14T13:43:34;4.35;;;0.40;;
842;SDS011;407;48.884;9.126;2023-03-14T13:46:07;6.00;;;0.40;;
842;SDS011;407;48.884;9.126;2023-03-14T13:48:42;4.30;;;0.40;;
842;SDS011;407;48.884;9.126;2023-03-14T13:51:11;4.30;;;0.40;;
842;SDS011;407;48.884;9.126;2023-03-14T13:53:42;4.10;;;0.30;;
842;SDS011;407;48.884;9.126;2023-03-14T13:56:10;5.70;;;0.60;;
842;SDS011;407;48.884;9.126;2023-03-14T13:58:37;4.20;;;0.30;;
842;SDS011;407;48.884;9.126;2023-03-14T14:01:05;4.50;;;0.90;;
842;SDS011;407;48.884;9.126;2023-03-14T14:03:40;4.40;;;0.40;;
842;SDS011;407;48.884;9.126;2023-03-14T14:06:09;4.40;;;0.50;;
842;SDS011;407;48.884;9.126;2023-03-14T14:08:46;4.30;;;0.30;;
842;SDS011;407;48.884;9.126;2023-03-14T14:11:18;4.47;;;0.40;;
842;SDS011;407;48.884;9.126;2023-03-14T14:14:05;4.22;;;0.30;;
842;SDS011;407;48.884;9.126;2023-03-14T14:16:36;5.00;;;0.50;;
842;SDS011;407;48.884;9.126;2023-03-14T14:19:02;4.70;;;0.60;;
842;SDS011;407;48.884;9.126;2023-03-14T14:21:28;4.53;;;0.45;;
842;SDS011;407;48.884;9.126;2023-03-14T14:23:53;5.30;;;0.60;;
842;SDS011;407;48.884;9.126;2023-03-14T14:26:19;7.72;;;1.00;;
842;SDS011;407;48.884;9.126;2023-03-14T14:28:45;6.80;;;0.30;;
842;SDS011;407;48.884;9.126;2023-03-14T14:33:41;4.30;;;0.40;;
842;SDS011;407;48.884;9.126;2023-03-14T14:36:24;4.60;;;0.60;;
842;SDS011;407;48.884;9.126;2023-03-14T14:39:03;6.00;;;0.60;;
842;SDS011;407;48.884;9.126;2023-03-14T14:41:47;5.90;;;0.40;;
842;SDS011;407;48.884;9.126;2023-03-14T14:44:16;14.30;;;0.90;;
842;SDS011;407;48.884;9.126;2023-03-14T14:46:45;4.70;;;0.45;;
842;SDS011;407;48.884;9.126;2023-03-14T14:49:16;6.30;;;0.70;;
842;SDS011;407;48.884;9.126;2023-03-14T14:51:49;4.50;;;0.60;;
842;SDS011;407;48.884;9.126;2023-03-14T14:54:16;5.77;;;0.70;;
842;SDS011;407;48.884;9.126;2023-03-14T14:56:50;4.63;;;0.43;;
842;SDS011;407;48.884;9.126;2023-03-14T14:59:21;5.97;;;0.68;;
842;SDS011;407;48.884;9.126;2023-03-14T15:01:56;4.50;;;0.60;;
842;SDS011;407;48.884;9.126;2023-03-14T15:04:23;6.50;;;0.77;;
842;SDS011;407;48.884;9.126;2023-03-14T15:06:50;6.90;;;0.63;;
842;SDS011;407;48.884;9.126;2023-03-14T15:09:17;4.68;;;0.50;;
842;SDS011;407;48.884;9.126;2023-03-14T15:11:43;4.63;;;0.70;;
842;SDS011;407;48.884;9.126;2023-03-14T15:14:09;4.90;;;0.47;;
842;SDS011;407;48.884;9.126;2023-03-14T15:16:34;5.80;;;0.77;;
842;SDS011;407;48.884;9.126;2023-03-14T15:19:02;4.70;;;0.67;;
842;SDS011;407;48.884;9.126;2023-03-14T15:21:33;5.10;;;0.40;;
842;SDS011;407;48.884;9.126;2023-03-14T15:24:00;10.30;;;0.90;;
842;SDS011;407;48.884;9.126;2023-03-14T15:26:31;5.60;;;0.57;;
842;SDS011;407;48.884;9.126;2023-03-14T15:28:58;5.40;;;0.40;;
842;SDS011;407;48.884;9.126;2023-03-14T15:31:24;6.20;;;0.40;;
842;SDS011;407;48.884;9.126;2023-03-14T15:33:50;4.82;;;1.00;;
842;SDS011;407;48.884;9.126;2023-03-14T15:36:20;4.70;;;0.67;;
842;SDS011;407;48.884;9.126;2023-03-14T15:38:53;7.38;;;0.77;;
842;SDS011;407;48.884;9.126;2023-03-14T15:41:20;7.40;;;1.10;;
842;SDS011;407;48.884;9.126;2023-03-14T15:43:46;5.60;;;0.40;;
842;SDS011;407;48.884;9.126;2023-03-14T15:46:13;5.80;;;0.70;;
842;SDS011;407;48.884;9.126;2023-03-14T15:48:39;5.90;;;0.60;;
842;SDS011;407;48.884;9.126;2023-03-14T15:51:06;4.90;;;0.80;;
842;SDS011;407;48.884;9.126;2023-03-14T15:53:32;4.60;;;0.50;;
842;SDS011;407;48.884;9.126;2023-03-14T15:55:58;6.68;;;0.68;;
842;SDS011;407;48.884;9.126;2023-03-14T15:58:24;4.65;;;0.57;;
842;SDS011;407;48.884;9.126;2023-03-14T16:00:49;4.20;;;0.70;;
842;SDS011;407;48.884;9.126;2023-03-14T16:03:15;7.60;;;0.80;;
842;SDS011;407;48.884;9.126;2023-03-14T16:05:41;6.50;;;0.70;;
842;SDS011;407;48.884;9.126;2023-03-14T16:08:07;4.50;;;0.50;;
842;SDS011;407;48.884;9.126;2023-03-14T16:10:33;6.30;;;0.75;;
842;SDS011;407;48.884;9.126;2023-03-14T16:12:59;5.60;;;0.60;;
842;SDS011;407;48.884;9.126;2023-03-14T16:15:25;4.78;;;0.70;;
842;SDS011;407;48.884;9.126;2023-03-14T16:17:54;4.78;;;0.70;;
842;SDS011;407;48.884;9.126;2023-03-14T16:20:21;5.80;;;0.60;;
842;SDS011;407;48.884;9.126;2023-03-14T16:22:48;4.53;;;0.70;;
842;SDS011;407;48.884;9.126;2023-03-14T16:25:13;6.97;;;1.08;;
842;SDS011;407;48.884;9.126;2023-03-14T16:27:40;4.53;;;0.70;;
842;SDS011;407;48.884;9.126;2023-03-14T16:30:07;6.50;;;1.20;;
842;SDS011;407;48.884;9.126;2023-03-14T16:32:33;5.40;;;0.70;;
842;SDS011;407;48.884;9.126;2023-03-14T16:35:00;4.95;;;0.60;;
842;SDS011;407;48.884;9.126;2023-03-14T16:37:25;7.90;;;0.90;;
842;SDS011;407;48.884;9.126;2023-03-14T16:39:51;8.23;;;0.90;;
842;SDS011;407;48.884;9.126;2023-03-14T16:42:18;7.30;;;1.30;;
842;SDS011;407;48.884;9.126;2023-03-14T16:44:45;8.80;;;1.92;;
842;SDS011;407;48.884;9.126;2023-03-14T16:47:10;5.30;;;0.70;;
842;SDS011;407;48.884;9.126;2023-03-14T16:49:36;5.00;;;0.60;;
842;SDS011;407;48.884;9.126;2023-03-14T16:52:02;8.00;;;1.00;;
842;SDS011;407;48.884;9.126;2023-03-14T16:54:28;9.05;;;0.90;;